Meteo Giornale » Osservazioni meteo Kazakhstan » Kokshetau
ore: 20:00 - Osservazioni Meteo Kokshetau
Lat. 53° 19' N Lon. 69° 35' E Alt. 2547 metri s.l.m.
12 °C
Sereno
Temp. 24 Ore
2 °C
15 °C
Ovest/Nord-Ovest
18 Km/h
Dew point 2 °C
Umidità 50 %
Visibilità 10 Km
Il sole sorge alle ore 05:31
Il sole tramonta alle ore 19:12
| Data e Ora | Cielo e Fenomeni | T °C | DP °C | Um. % | Pres. hPa | Vis. km | Vento km/h | |
|---|---|---|---|---|---|---|---|---|
| Ieri h: 20:00 | Sereno | 12 | 2 | 50 | 1015 | 10 | O/NO 18 | |
| Ieri h: 19:30 | Sereno | 11 | 2 | 53 | 1015 | 10 | O 18 | |
| Ieri h: 19:00 | Sereno | 12 | 2 | 50 | 1015 | 10 | O/NO 21.6 | |
| Ieri h: 18:30 | Sereno | 12 | 2 | 50 | 1015 | 10 | O/NO 21.6 | |
| Ieri h: 18:00 | Sereno | 13 | 2 | 47 | 1015 | 10 | O/NO 21.6 | |
| Ieri h: 17:30 | Sereno | 13 | 2 | 47 | 1015 | 10 | O/NO 21.6 | |
| Ieri h: 17:00 | Sereno | 13 | 1 | 43 | 1014 | 10 | NO 25.2 | |
| Ieri h: 16:30 | Sereno | 14 | 0 | 38 | 1014 | 10 | O/NO 25.2 | |
| Ieri h: 16:00 | Sereno | 14 | -1 | 35 | 1014 | 10 | O/NO 28.8 | |
| Ieri h: 15:30 | Sereno | 15 | 0 | 35 | 1014 | 10 | O 28.8 | |
| Ieri h: 15:00 | Sereno | 15 | -1 | 33 | 1014 | 10 | O/NO 28.8 | |
| Ieri h: 14:30 | Sereno | 14 | -1 | 35 | 1015 | 10 | O/NO 25.2 | |
| Ieri h: 14:00 | Sereno | 15 | 0 | 35 | 1015 | 10 | O/NO 28.8 | |
| Ieri h: 13:30 | Sereno | 14 | -2 | 32 | 1015 | 10 | O/NO 28.8 | |
| Ieri h: 13:00 | Sereno | 14 | -2 | 32 | 1015 | 10 | O/NO 25.2 | |
| Ieri h: 12:30 | Sereno | 12 | -1 | 40 | 1015 | 10 | O/NO 25.2 | |
| Ieri h: 12:00 | Sereno | 13 | -2 | 35 | 1016 | 10 | NO 25.2 | |
| Ieri h: 11:30 | Sereno | 11 | -2 | 40 | 1016 | 10 | O/NO 25.2 | |
| Ieri h: 11:00 | Sereno | 12 | -2 | 37 | 1016 | 10 | O 28.8 | |
| Ieri h: 10:30 | Sereno | 12 | -1 | 40 | 1016 | 10 | O/NO 25.2 | |
| Ieri h: 10:00 | Sereno | 12 | -1 | 40 | 1017 | 10 | NO 25.2 | |
| Ieri h: 09:30 | Molto Nuvoloso | 12 | 0 | 43 | 1017 | 10 | O/NO 21.6 | |
| Ieri h: 09:00 | Sereno | 10 | 1 | 53 | 1017 | 10 | O/NO 18 | |
| Ieri h: 08:30 | Sereno | 9 | 2 | 61 | 1017 | 10 | O/NO 18 | |
| Ieri h: 08:00 | Sereno | 8 | 2 | 65 | 1017 | 10 | O/NO 14.4 | |
| Ieri h: 07:30 | Sereno | 5 | 3 | 86 | 1017 | 10 | O/SO 10.8 | |
| Ieri h: 07:00 | Sereno | 2 | 1 | 93 | 1017 | 10 | N 7.2 | |



